»·PEaware :: N2102W KPOC-KSNA

N2102W :: KPOC-KSNA

FLIGHT INFORMATION

Flight Status: Arrived
Operator: Privately registered:
United States
More flights under this callsign
Pilot: Eric G. (5941)
Aircraft: BEECH AIRCRAFT BARON
(BE58)
More flights by this aircraft type
Origin: KPOC Brackett
United States
Destination: KSNA John Wayne-Orange Co
United States
More flights between these airports :: More routes between these airports
Route: PRADO V363 POXKU V8 SLI
File this flight plan on PilotEdge
Remarks:
Altitude:
(Current/Filed)
4,000ft
Speed:
(Current/Filed)
195kts
Departed: 20-Nov-23 04:58 PM
Arrived: 20-Nov-23 05:20 PM
Distance/Time
Traveled:
26nm/0:22
Distance/Time
To Go:
Arrived

Flight Plot

Page will automatically refresh every two minutes.


Map Options




Map Legend


Flown Route
Filed Route
Departure Airport
Arrival Airport
Navaid (VOR, NDB)
Fix

Horizontal Profiles

Position Reports

Time Latitude Longitude Heading Altitude Ground
Speed
20-Nov-23 16:32 34.093347 -117.784928 101 986ft 0kts
20-Nov-23 16:33 34.093347 -117.784928 195 986ft 0kts
20-Nov-23 16:34 34.093347 -117.784928 195 986ft 0kts
20-Nov-23 16:35 34.093347 -117.784928 195 986ft 0kts
20-Nov-23 16:36 34.093347 -117.784928 195 986ft 0kts
20-Nov-23 16:37 34.093347 -117.784928 195 986ft 0kts
20-Nov-23 16:38 34.093347 -117.784928 195 985ft 0kts
20-Nov-23 16:39 34.093347 -117.784928 195 985ft 0kts
20-Nov-23 16:40 34.093347 -117.784928 195 985ft 0kts
20-Nov-23 16:41 34.093347 -117.784928 195 985ft 0kts
20-Nov-23 16:42 34.093347 -117.784928 195 985ft 0kts
20-Nov-23 16:43 34.093347 -117.784928 195 985ft 0kts
20-Nov-23 16:44 34.093347 -117.784928 195 985ft 0kts
20-Nov-23 16:45 34.093347 -117.784928 195 985ft 0kts
20-Nov-23 16:46 34.093347 -117.784928 195 985ft 0kts
20-Nov-23 16:47 34.093347 -117.784928 195 985ft 0kts
20-Nov-23 16:48 34.093347 -117.784928 195 985ft 0kts
20-Nov-23 16:49 34.093347 -117.784928 195 985ft 0kts
20-Nov-23 16:50 34.093347 -117.784928 195 985ft 0kts
20-Nov-23 16:51 34.093347 -117.784928 195 985ft 0kts
20-Nov-23 16:52 34.092608 -117.782718 94 991ft 16kts
20-Nov-23 16:53 34.092291 -117.775828 94 1011ft 22kts
20-Nov-23 16:54 34.092271 -117.774963 109 1014ft 0kts
20-Nov-23 16:55 34.092271 -117.774963 109 1014ft 0kts
20-Nov-23 16:56 34.092207 -117.774841 140 1015ft 6kts
20-Nov-23 16:57 34.091014 -117.775858 273 1006ft 46kts
20-Nov-23 16:58 34.087559 -117.814063 227 2062ft 142kts
20-Nov-23 17:00 34.049058 -117.805148 141 3333ft 163kts
20-Nov-23 17:01 34.005681 -117.785395 181 3930ft 192kts
20-Nov-23 17:02 33.953206 -117.792571 182 3989ft 187kts
20-Nov-23 17:03 33.901375 -117.795238 177 3972ft 183kts
20-Nov-23 17:04 33.856769 -117.813017 248 3960ft 184kts
20-Nov-23 17:05 33.831857 -117.866363 207 3964ft 186kts
20-Nov-23 17:06 33.786210 -117.896038 206 3970ft 187kts
20-Nov-23 17:07 33.740334 -117.926009 206 3982ft 189kts
20-Nov-23 17:08 33.693493 -117.956584 206 3216ft 191kts
20-Nov-23 17:09 33.650731 -117.984984 206 2979ft 161kts
20-Nov-23 17:10 33.609078 -118.013047 206 3003ft 195kts
20-Nov-23 17:11 33.560337 -118.045428 206 2992ft 201kts
20-Nov-23 17:12 33.511294 -118.077579 192 2986ft 197kts
20-Nov-23 17:13 33.496610 -118.042371 31 3001ft 160kts
20-Nov-23 17:14 33.506097 -117.995155 78 2994ft 163kts
20-Nov-23 17:15 33.532907 -117.954959 28 2997ft 164kts
20-Nov-23 17:16 33.574354 -117.933655 31 2535ft 157kts
20-Nov-23 17:17 33.608947 -117.911411 32 1363ft 131kts
20-Nov-23 17:18 33.637171 -117.893205 29 804ft 91kts
20-Nov-23 17:19 33.659585 -117.879117 28 361ft 93kts
20-Nov-23 17:20 33.674040 -117.870348 289 53ft 9kts
20-Nov-23 17:21 33.673727 -117.871580 207 54ft 14kts
20-Nov-23 17:22 33.671256 -117.873739 113 55ft 0kts
20-Nov-23 17:23 33.671256 -117.873739 113 55ft 0kts
20-Nov-23 17:24 33.671256 -117.873739 113 55ft 0kts
20-Nov-23 17:25 33.671256 -117.873739 113 58ft 0kts
20-Nov-23 17:25 33.671256 -117.873739 113 58ft 0kts
20-Nov-23 17:27 33.671256 -117.873739 113 58ft 0kts
20-Nov-23 17:28 33.671256 -117.873739 113 58ft 0kts

Navigation Log

Ident Type
Flight plan parsing failed, navigation log unavailable